sensor_id;sensor_type;location;lat;lon;timestamp;P1;durP1;ratioP1;P2;durP2;ratioP2
6436;SDS011;3251;53.550;9.918;2024-01-11T00:00:48;77.17;;;30.67;;
6436;SDS011;3251;53.550;9.918;2024-01-11T00:03:14;50.53;;;19.63;;
6436;SDS011;3251;53.550;9.918;2024-01-11T00:05:41;56.37;;;21.47;;
6436;SDS011;3251;53.550;9.918;2024-01-11T00:08:07;42.30;;;18.47;;
6436;SDS011;3251;53.550;9.918;2024-01-11T00:10:33;46.97;;;19.50;;
6436;SDS011;3251;53.550;9.918;2024-01-11T00:12:59;53.20;;;22.97;;
6436;SDS011;3251;53.550;9.918;2024-01-11T00:15:26;50.97;;;19.03;;
6436;SDS011;3251;53.550;9.918;2024-01-11T00:17:52;47.73;;;19.70;;
6436;SDS011;3251;53.550;9.918;2024-01-11T06:59:06;30.97;;;11.17;;
6436;SDS011;3251;53.550;9.918;2024-01-11T07:01:33;24.20;;;9.20;;
6436;SDS011;3251;53.550;9.918;2024-01-11T07:03:59;23.70;;;9.70;;
6436;SDS011;3251;53.550;9.918;2024-01-11T07:06:25;32.67;;;9.23;;
6436;SDS011;3251;53.550;9.918;2024-01-11T07:08:51;51.87;;;10.70;;
6436;SDS011;3251;53.550;9.918;2024-01-11T07:11:17;59.47;;;10.00;;
6436;SDS011;3251;53.550;9.918;2024-01-11T07:13:43;30.17;;;10.50;;
6436;SDS011;3251;53.550;9.918;2024-01-11T07:16:09;31.57;;;11.00;;
6436;SDS011;3251;53.550;9.918;2024-01-11T07:18:35;29.73;;;9.17;;
6436;SDS011;3251;53.550;9.918;2024-01-11T07:21:02;35.77;;;12.07;;
6436;SDS011;3251;53.550;9.918;2024-01-11T07:23:28;42.13;;;11.97;;
6436;SDS011;3251;53.550;9.918;2024-01-11T07:25:54;31.47;;;11.37;;
6436;SDS011;3251;53.550;9.918;2024-01-11T07:28:20;50.23;;;12.13;;
6436;SDS011;3251;53.550;9.918;2024-01-11T07:30:51;31.17;;;11.20;;
6436;SDS011;3251;53.550;9.918;2024-01-11T07:33:18;36.83;;;11.20;;
6436;SDS011;3251;53.550;9.918;2024-01-11T07:35:44;43.53;;;12.17;;
6436;SDS011;3251;53.550;9.918;2024-01-11T07:38:11;27.50;;;9.67;;
6436;SDS011;3251;53.550;9.918;2024-01-11T07:40:37;51.23;;;11.50;;
6436;SDS011;3251;53.550;9.918;2024-01-11T07:43:03;34.07;;;10.10;;
6436;SDS011;3251;53.550;9.918;2024-01-11T07:45:29;41.50;;;11.57;;
6436;SDS011;3251;53.550;9.918;2024-01-11T07:47:55;32.70;;;11.43;;
6436;SDS011;3251;53.550;9.918;2024-01-11T07:50:21;58.27;;;10.97;;
6436;SDS011;3251;53.550;9.918;2024-01-11T07:52:47;42.80;;;12.67;;
6436;SDS011;3251;53.550;9.918;2024-01-11T07:55:14;39.67;;;12.10;;
6436;SDS011;3251;53.550;9.918;2024-01-11T07:57:41;36.63;;;10.20;;
6436;SDS011;3251;53.550;9.918;2024-01-11T08:00:08;28.93;;;9.33;;
6436;SDS011;3251;53.550;9.918;2024-01-11T08:02:40;32.13;;;10.87;;
6436;SDS011;3251;53.550;9.918;2024-01-11T08:05:06;34.93;;;9.60;;
6436;SDS011;3251;53.550;9.918;2024-01-11T08:07:33;30.47;;;11.37;;
6436;SDS011;3251;53.550;9.918;2024-01-11T08:09:59;42.63;;;12.43;;
6436;SDS011;3251;53.550;9.918;2024-01-11T08:12:25;38.80;;;12.10;;
6436;SDS011;3251;53.550;9.918;2024-01-11T08:14:51;36.97;;;10.20;;
6436;SDS011;3251;53.550;9.918;2024-01-11T08:17:17;32.93;;;10.27;;
6436;SDS011;3251;53.550;9.918;2024-01-11T08:19:43;35.53;;;10.50;;
6436;SDS011;3251;53.550;9.918;2024-01-11T08:22:10;40.23;;;11.10;;
6436;SDS011;3251;53.550;9.918;2024-01-11T08:24:36;36.27;;;12.03;;
6436;SDS011;3251;53.550;9.918;2024-01-11T08:27:03;34.63;;;11.33;;
6436;SDS011;3251;53.550;9.918;2024-01-11T08:29:29;61.10;;;13.23;;
6436;SDS011;3251;53.550;9.918;2024-01-11T08:31:55;39.53;;;10.77;;
6436;SDS011;3251;53.550;9.918;2024-01-11T08:34:21;36.63;;;12.13;;
6436;SDS011;3251;53.550;9.918;2024-01-11T08:36:48;37.30;;;12.40;;
6436;SDS011;3251;53.550;9.918;2024-01-11T08:39:14;35.17;;;13.00;;
6436;SDS011;3251;53.550;9.918;2024-01-11T08:41:40;42.90;;;13.93;;
6436;SDS011;3251;53.550;9.918;2024-01-11T08:44:07;31.77;;;11.73;;
6436;SDS011;3251;53.550;9.918;2024-01-11T08:46:33;37.83;;;12.00;;
6436;SDS011;3251;53.550;9.918;2024-01-11T08:49:00;50.03;;;13.37;;
6436;SDS011;3251;53.550;9.918;2024-01-11T08:51:28;48.27;;;11.80;;
6436;SDS011;3251;53.550;9.918;2024-01-11T08:53:54;42.33;;;12.33;;
6436;SDS011;3251;53.550;9.918;2024-01-11T08:56:21;37.03;;;11.37;;
6436;SDS011;3251;53.550;9.918;2024-01-11T08:58:47;38.00;;;10.83;;
6436;SDS011;3251;53.550;9.918;2024-01-11T09:01:13;48.67;;;13.33;;
6436;SDS011;3251;53.550;9.918;2024-01-11T09:03:39;31.37;;;8.70;;
6436;SDS011;3251;53.550;9.918;2024-01-11T09:06:06;28.20;;;10.37;;
6436;SDS011;3251;53.550;9.918;2024-01-11T09:08:32;36.97;;;10.60;;
6436;SDS011;3251;53.550;9.918;2024-01-11T09:10:58;37.67;;;9.30;;
6436;SDS011;3251;53.550;9.918;2024-01-11T09:13:25;39.13;;;11.20;;
6436;SDS011;3251;53.550;9.918;2024-01-11T09:15:52;30.53;;;10.07;;
6436;SDS011;3251;53.550;9.918;2024-01-11T09:18:19;33.23;;;8.90;;
6436;SDS011;3251;53.550;9.918;2024-01-11T09:20:45;46.00;;;12.17;;
6436;SDS011;3251;53.550;9.918;2024-01-11T09:23:12;30.57;;;11.23;;
6436;SDS011;3251;53.550;9.918;2024-01-11T09:25:38;37.73;;;9.73;;
6436;SDS011;3251;53.550;9.918;2024-01-11T09:28:05;32.73;;;10.97;;
6436;SDS011;3251;53.550;9.918;2024-01-11T09:30:31;35.40;;;12.20;;
6436;SDS011;3251;53.550;9.918;2024-01-11T09:32:57;32.70;;;9.30;;
6436;SDS011;3251;53.550;9.918;2024-01-11T09:35:23;35.47;;;11.10;;
6436;SDS011;3251;53.550;9.918;2024-01-11T09:37:50;40.43;;;12.90;;
6436;SDS011;3251;53.550;9.918;2024-01-11T09:40:16;30.20;;;10.27;;
6436;SDS011;3251;53.550;9.918;2024-01-11T09:42:43;37.27;;;10.50;;
6436;SDS011;3251;53.550;9.918;2024-01-11T09:45:12;23.70;;;9.60;;
6436;SDS011;3251;53.550;9.918;2024-01-11T09:47:38;35.63;;;12.63;;
6436;SDS011;3251;53.550;9.918;2024-01-11T09:50:05;42.90;;;14.90;;
6436;SDS011;3251;53.550;9.918;2024-01-11T09:52:31;38.13;;;12.27;;
6436;SDS011;3251;53.550;9.918;2024-01-11T09:54:58;47.53;;;15.77;;
6436;SDS011;3251;53.550;9.918;2024-01-11T09:57:24;40.10;;;15.00;;
6436;SDS011;3251;53.550;9.918;2024-01-11T09:59:53;36.20;;;14.43;;
6436;SDS011;3251;53.550;9.918;2024-01-11T10:02:21;41.63;;;15.87;;
6436;SDS011;3251;53.550;9.918;2024-01-11T10:04:48;42.67;;;16.03;;
6436;SDS011;3251;53.550;9.918;2024-01-11T10:07:14;44.87;;;16.97;;
6436;SDS011;3251;53.550;9.918;2024-01-11T10:09:43;51.63;;;19.30;;
6436;SDS011;3251;53.550;9.918;2024-01-11T10:12:09;41.63;;;18.33;;
6436;SDS011;3251;53.550;9.918;2024-01-11T10:14:36;44.27;;;17.00;;
6436;SDS011;3251;53.550;9.918;2024-01-11T10:17:02;48.97;;;17.30;;
6436;SDS011;3251;53.550;9.918;2024-01-11T10:19:28;50.00;;;17.23;;
6436;SDS011;3251;53.550;9.918;2024-01-11T10:21:54;49.30;;;17.03;;
6436;SDS011;3251;53.550;9.918;2024-01-11T10:24:21;52.30;;;18.53;;
6436;SDS011;3251;53.550;9.918;2024-01-11T10:26:51;43.83;;;15.40;;
6436;SDS011;3251;53.550;9.918;2024-01-11T10:29:17;52.70;;;18.40;;
6436;SDS011;3251;53.550;9.918;2024-01-11T10:31:44;47.27;;;18.40;;
6436;SDS011;3251;53.550;9.918;2024-01-11T10:34:10;45.30;;;19.13;;
6436;SDS011;3251;53.550;9.918;2024-01-11T10:36:36;55.30;;;20.30;;
6436;SDS011;3251;53.550;9.918;2024-01-11T10:39:02;106.70;;;31.83;;
6436;SDS011;3251;53.550;9.918;2024-01-11T10:41:31;104.83;;;35.43;;
6436;SDS011;3251;53.550;9.918;2024-01-11T10:43:58;72.00;;;28.73;;
6436;SDS011;3251;53.550;9.918;2024-01-11T10:46:25;80.40;;;29.53;;
6436;SDS011;3251;53.550;9.918;2024-01-11T10:48:53;64.27;;;23.13;;
6436;SDS011;3251;53.550;9.918;2024-01-11T10:51:22;73.20;;;24.20;;
6436;SDS011;3251;53.550;9.918;2024-01-11T10:53:49;67.83;;;21.83;;
6436;SDS011;3251;53.550;9.918;2024-01-11T10:56:16;60.10;;;20.73;;
6436;SDS011;3251;53.550;9.918;2024-01-11T10:58:43;71.67;;;22.27;;
6436;SDS011;3251;53.550;9.918;2024-01-11T11:01:10;56.87;;;21.07;;
6436;SDS011;3251;53.550;9.918;2024-01-11T11:03:37;59.70;;;20.47;;
6436;SDS011;3251;53.550;9.918;2024-01-11T11:06:04;137.70;;;43.73;;
6436;SDS011;3251;53.550;9.918;2024-01-11T11:08:31;98.77;;;35.40;;
6436;SDS011;3251;53.550;9.918;2024-01-11T11:10:58;87.33;;;32.10;;
6436;SDS011;3251;53.550;9.918;2024-01-11T11:13:25;81.40;;;27.90;;
6436;SDS011;3251;53.550;9.918;2024-01-11T11:15:54;115.03;;;32.67;;
6436;SDS011;3251;53.550;9.918;2024-01-11T11:18:22;73.23;;;26.57;;
6436;SDS011;3251;53.550;9.918;2024-01-11T11:20:49;59.77;;;23.93;;
6436;SDS011;3251;53.550;9.918;2024-01-11T11:23:16;79.30;;;25.70;;
6436;SDS011;3251;53.550;9.918;2024-01-11T11:25:42;67.70;;;23.43;;
6436;SDS011;3251;53.550;9.918;2024-01-11T11:28:13;117.20;;;45.30;;
6436;SDS011;3251;53.550;9.918;2024-01-11T11:30:41;107.30;;;41.20;;
6436;SDS011;3251;53.550;9.918;2024-01-11T11:33:16;73.40;;;27.30;;
6436;SDS011;3251;53.550;9.918;2024-01-11T11:35:43;91.13;;;28.23;;
6436;SDS011;3251;53.550;9.918;2024-01-11T11:38:22;90.00;;;29.63;;
6436;SDS011;3251;53.550;9.918;2024-01-11T11:40:49;101.13;;;39.90;;
6436;SDS011;3251;53.550;9.918;2024-01-11T11:43:17;131.97;;;45.27;;
6436;SDS011;3251;53.550;9.918;2024-01-11T11:45:43;100.30;;;34.23;;
6436;SDS011;3251;53.550;9.918;2024-01-11T11:51:27;64.10;;;22.43;;
6436;SDS011;3251;53.550;9.918;2024-01-11T11:53:47;68.17;;;25.33;;
6436;SDS011;3251;53.550;9.918;2024-01-11T11:56:13;81.40;;;20.87;;
6436;SDS011;3251;53.550;9.918;2024-01-11T11:58:42;64.70;;;22.70;;
6436;SDS011;3251;53.550;9.918;2024-01-11T12:01:08;56.90;;;22.30;;
6436;SDS011;3251;53.550;9.918;2024-01-11T12:03:35;67.70;;;21.83;;
6436;SDS011;3251;53.550;9.918;2024-01-11T12:06:08;61.30;;;22.40;;
6436;SDS011;3251;53.550;9.918;2024-01-11T12:08:37;71.00;;;23.17;;
6436;SDS011;3251;53.550;9.918;2024-01-11T12:11:05;65.50;;;23.73;;
6436;SDS011;3251;53.550;9.918;2024-01-11T12:13:31;62.60;;;22.83;;
6436;SDS011;3251;53.550;9.918;2024-01-11T12:15:57;59.20;;;23.47;;
6436;SDS011;3251;53.550;9.918;2024-01-11T12:18:24;80.80;;;25.47;;
6436;SDS011;3251;53.550;9.918;2024-01-11T12:20:50;68.33;;;25.57;;
6436;SDS011;3251;53.550;9.918;2024-01-11T12:23:18;64.43;;;22.87;;
6436;SDS011;3251;53.550;9.918;2024-01-11T12:25:44;70.63;;;20.97;;
6436;SDS011;3251;53.550;9.918;2024-01-11T12:28:10;67.30;;;23.43;;
6436;SDS011;3251;53.550;9.918;2024-01-11T12:30:37;56.20;;;21.40;;
6436;SDS011;3251;53.550;9.918;2024-01-11T12:33:03;65.17;;;21.37;;
6436;SDS011;3251;53.550;9.918;2024-01-11T12:35:30;65.13;;;24.17;;
6436;SDS011;3251;53.550;9.918;2024-01-11T12:38:00;62.13;;;26.07;;
6436;SDS011;3251;53.550;9.918;2024-01-11T12:40:31;65.57;;;22.27;;
6436;SDS011;3251;53.550;9.918;2024-01-11T12:42:57;51.40;;;22.20;;
6436;SDS011;3251;53.550;9.918;2024-01-11T12:45:23;74.97;;;27.70;;
6436;SDS011;3251;53.550;9.918;2024-01-11T12:47:51;114.40;;;39.57;;
6436;SDS011;3251;53.550;9.918;2024-01-11T12:50:19;77.07;;;27.30;;
6436;SDS011;3251;53.550;9.918;2024-01-11T12:52:46;64.27;;;24.70;;
6436;SDS011;3251;53.550;9.918;2024-01-11T12:55:18;75.67;;;23.73;;
6436;SDS011;3251;53.550;9.918;2024-01-11T12:57:45;55.63;;;20.90;;
6436;SDS011;3251;53.550;9.918;2024-01-11T13:00:11;57.47;;;22.30;;
6436;SDS011;3251;53.550;9.918;2024-01-11T13:02:38;82.53;;;22.50;;
6436;SDS011;3251;53.550;9.918;2024-01-11T13:05:05;51.10;;;23.57;;
6436;SDS011;3251;53.550;9.918;2024-01-11T13:07:32;61.93;;;20.07;;
6436;SDS011;3251;53.550;9.918;2024-01-11T13:10:01;69.83;;;23.40;;
6436;SDS011;3251;53.550;9.918;2024-01-11T13:12:29;63.23;;;22.30;;
6436;SDS011;3251;53.550;9.918;2024-01-11T13:14:55;155.47;;;51.10;;
6436;SDS011;3251;53.550;9.918;2024-01-11T13:17:21;105.50;;;37.27;;
6436;SDS011;3251;53.550;9.918;2024-01-11T13:19:47;66.53;;;26.17;;
6436;SDS011;3251;53.550;9.918;2024-01-11T13:22:13;63.13;;;23.33;;
6436;SDS011;3251;53.550;9.918;2024-01-11T13:27:31;51.87;;;20.53;;
6436;SDS011;3251;53.550;9.918;2024-01-11T13:29:57;58.60;;;20.83;;
6436;SDS011;3251;53.550;9.918;2024-01-11T13:32:23;56.23;;;22.60;;
6436;SDS011;3251;53.550;9.918;2024-01-11T13:34:49;53.90;;;19.10;;
6436;SDS011;3251;53.550;9.918;2024-01-11T13:37:18;64.77;;;21.77;;
6436;SDS011;3251;53.550;9.918;2024-01-11T13:39:45;55.90;;;20.50;;
6436;SDS011;3251;53.550;9.918;2024-01-11T13:42:11;47.17;;;20.40;;
6436;SDS011;3251;53.550;9.918;2024-01-11T13:44:38;82.63;;;21.43;;
6436;SDS011;3251;53.550;9.918;2024-01-11T13:47:04;47.90;;;17.83;;
6436;SDS011;3251;53.550;9.918;2024-01-11T13:49:30;61.77;;;22.20;;
6436;SDS011;3251;53.550;9.918;2024-01-11T13:51:57;53.87;;;18.03;;
6436;SDS011;3251;53.550;9.918;2024-01-11T13:54:23;61.47;;;22.90;;
6436;SDS011;3251;53.550;9.918;2024-01-11T13:56:49;61.67;;;19.80;;
6436;SDS011;3251;53.550;9.918;2024-01-11T13:59:19;63.83;;;18.20;;
6436;SDS011;3251;53.550;9.918;2024-01-11T14:01:45;53.77;;;18.87;;
6436;SDS011;3251;53.550;9.918;2024-01-11T14:04:11;49.20;;;18.80;;
6436;SDS011;3251;53.550;9.918;2024-01-11T14:06:37;53.17;;;18.07;;
6436;SDS011;3251;53.550;9.918;2024-01-11T14:09:03;59.10;;;16.87;;
6436;SDS011;3251;53.550;9.918;2024-01-11T14:11:32;56.50;;;16.97;;
6436;SDS011;3251;53.550;9.918;2024-01-11T14:13:58;48.93;;;18.43;;
6436;SDS011;3251;53.550;9.918;2024-01-11T14:16:24;46.43;;;17.00;;
6436;SDS011;3251;53.550;9.918;2024-01-11T14:18:51;48.50;;;17.97;;
6436;SDS011;3251;53.550;9.918;2024-01-11T14:21:17;43.90;;;16.87;;
6436;SDS011;3251;53.550;9.918;2024-01-11T14:23:43;48.53;;;17.97;;
6436;SDS011;3251;53.550;9.918;2024-01-11T14:26:09;36.13;;;14.07;;
6436;SDS011;3251;53.550;9.918;2024-01-11T14:28:35;53.13;;;17.20;;
6436;SDS011;3251;53.550;9.918;2024-01-11T14:31:07;40.00;;;16.60;;
6436;SDS011;3251;53.550;9.918;2024-01-11T14:33:33;50.93;;;15.10;;
6436;SDS011;3251;53.550;9.918;2024-01-11T14:36:01;45.40;;;15.27;;
6436;SDS011;3251;53.550;9.918;2024-01-11T14:38:27;44.00;;;14.70;;
6436;SDS011;3251;53.550;9.918;2024-01-11T14:40:53;46.70;;;17.20;;
6436;SDS011;3251;53.550;9.918;2024-01-11T14:43:19;51.20;;;16.23;;
6436;SDS011;3251;53.550;9.918;2024-01-11T14:45:46;35.13;;;13.17;;
6436;SDS011;3251;53.550;9.918;2024-01-11T14:48:13;60.87;;;14.47;;
6436;SDS011;3251;53.550;9.918;2024-01-11T14:50:39;41.40;;;15.43;;
6436;SDS011;3251;53.550;9.918;2024-01-11T14:53:05;46.37;;;15.43;;
6436;SDS011;3251;53.550;9.918;2024-01-11T14:55:31;42.13;;;15.33;;
6436;SDS011;3251;53.550;9.918;2024-01-11T14:57:57;34.27;;;15.70;;
6436;SDS011;3251;53.550;9.918;2024-01-11T15:00:23;40.80;;;14.70;;
6436;SDS011;3251;53.550;9.918;2024-01-11T15:02:50;49.63;;;15.87;;
6436;SDS011;3251;53.550;9.918;2024-01-11T15:05:16;44.57;;;15.30;;
6436;SDS011;3251;53.550;9.918;2024-01-11T15:07:43;44.40;;;15.10;;
6436;SDS011;3251;53.550;9.918;2024-01-11T15:10:09;46.40;;;15.17;;
6436;SDS011;3251;53.550;9.918;2024-01-11T15:12:35;38.70;;;16.37;;
6436;SDS011;3251;53.550;9.918;2024-01-11T15:15:02;32.90;;;14.10;;
6436;SDS011;3251;53.550;9.918;2024-01-11T15:17:31;31.13;;;14.20;;
6436;SDS011;3251;53.550;9.918;2024-01-11T15:19:57;38.70;;;14.87;;
6436;SDS011;3251;53.550;9.918;2024-01-11T15:22:24;42.77;;;14.73;;
6436;SDS011;3251;53.550;9.918;2024-01-11T15:24:52;38.60;;;14.30;;
6436;SDS011;3251;53.550;9.918;2024-01-11T15:27:19;40.33;;;16.33;;
6436;SDS011;3251;53.550;9.918;2024-01-11T15:29:46;49.33;;;15.33;;
6436;SDS011;3251;53.550;9.918;2024-01-11T15:32:12;106.30;;;37.33;;
6436;SDS011;3251;53.550;9.918;2024-01-11T15:34:39;68.13;;;24.87;;
6436;SDS011;3251;53.550;9.918;2024-01-11T15:37:06;39.80;;;16.70;;
6436;SDS011;3251;53.550;9.918;2024-01-11T15:39:33;51.83;;;15.00;;
6436;SDS011;3251;53.550;9.918;2024-01-11T15:42:00;37.40;;;15.07;;
6436;SDS011;3251;53.550;9.918;2024-01-11T15:44:30;34.50;;;13.43;;
6436;SDS011;3251;53.550;9.918;2024-01-11T15:46:59;34.77;;;14.10;;
6436;SDS011;3251;53.550;9.918;2024-01-11T15:49:25;44.00;;;14.37;;
6436;SDS011;3251;53.550;9.918;2024-01-11T15:51:52;22.47;;;11.40;;
6436;SDS011;3251;53.550;9.918;2024-01-11T15:54:19;24.43;;;11.30;;
6436;SDS011;3251;53.550;9.918;2024-01-11T15:56:48;44.67;;;14.07;;
6436;SDS011;3251;53.550;9.918;2024-01-11T15:59:15;42.30;;;13.17;;
6436;SDS011;3251;53.550;9.918;2024-01-11T16:01:43;44.00;;;11.17;;
6436;SDS011;3251;53.550;9.918;2024-01-11T16:04:09;39.20;;;11.83;;
6436;SDS011;3251;53.550;9.918;2024-01-11T16:06:35;39.40;;;11.33;;
6436;SDS011;3251;53.550;9.918;2024-01-11T16:09:01;36.47;;;10.70;;
6436;SDS011;3251;53.550;9.918;2024-01-11T16:11:30;66.03;;;23.40;;
6436;SDS011;3251;53.550;9.918;2024-01-11T16:13:56;66.57;;;20.70;;
6436;SDS011;3251;53.550;9.918;2024-01-11T16:16:23;36.37;;;15.10;;
6436;SDS011;3251;53.550;9.918;2024-01-11T16:18:49;51.63;;;17.60;;
6436;SDS011;3251;53.550;9.918;2024-01-11T16:21:15;62.53;;;20.27;;
6436;SDS011;3251;53.550;9.918;2024-01-11T16:23:41;38.37;;;14.17;;
6436;SDS011;3251;53.550;9.918;2024-01-11T16:26:08;50.80;;;15.20;;
6436;SDS011;3251;53.550;9.918;2024-01-11T16:28:35;39.20;;;12.40;;
6436;SDS011;3251;53.550;9.918;2024-01-11T16:31:02;40.67;;;14.73;;
6436;SDS011;3251;53.550;9.918;2024-01-11T16:33:28;36.63;;;12.50;;
6436;SDS011;3251;53.550;9.918;2024-01-11T16:35:55;34.43;;;11.77;;
6436;SDS011;3251;53.550;9.918;2024-01-11T16:38:21;38.17;;;13.90;;
6436;SDS011;3251;53.550;9.918;2024-01-11T16:40:48;35.90;;;13.60;;
6436;SDS011;3251;53.550;9.918;2024-01-11T16:43:14;45.70;;;14.40;;
6436;SDS011;3251;53.550;9.918;2024-01-11T16:45:40;54.73;;;13.50;;
6436;SDS011;3251;53.550;9.918;2024-01-11T16:48:06;43.60;;;14.37;;
6436;SDS011;3251;53.550;9.918;2024-01-11T16:50:35;41.30;;;13.83;;
6436;SDS011;3251;53.550;9.918;2024-01-11T16:53:01;44.20;;;13.10;;
6436;SDS011;3251;53.550;9.918;2024-01-11T16:55:28;47.17;;;15.50;;
6436;SDS011;3251;53.550;9.918;2024-01-11T16:57:54;41.20;;;14.27;;
6436;SDS011;3251;53.550;9.918;2024-01-11T17:00:21;40.30;;;14.57;;
6436;SDS011;3251;53.550;9.918;2024-01-11T17:02:47;43.70;;;14.63;;
6436;SDS011;3251;53.550;9.918;2024-01-11T17:05:13;36.87;;;13.63;;
6436;SDS011;3251;53.550;9.918;2024-01-11T17:07:39;37.60;;;13.87;;
6436;SDS011;3251;53.550;9.918;2024-01-11T17:10:06;51.47;;;15.27;;
6436;SDS011;3251;53.550;9.918;2024-01-11T17:12:32;49.57;;;16.27;;
6436;SDS011;3251;53.550;9.918;2024-01-11T17:14:58;40.17;;;14.97;;
6436;SDS011;3251;53.550;9.918;2024-01-11T17:17:24;49.57;;;13.60;;
6436;SDS011;3251;53.550;9.918;2024-01-11T17:19:50;66.37;;;16.17;;
6436;SDS011;3251;53.550;9.918;2024-01-11T17:22:16;42.87;;;16.37;;
6436;SDS011;3251;53.550;9.918;2024-01-11T17:24:42;43.80;;;15.00;;
6436;SDS011;3251;53.550;9.918;2024-01-11T17:27:09;42.70;;;14.43;;
6436;SDS011;3251;53.550;9.918;2024-01-11T17:29:39;51.53;;;16.37;;
6436;SDS011;3251;53.550;9.918;2024-01-11T17:32:06;47.30;;;15.03;;
6436;SDS011;3251;53.550;9.918;2024-01-11T17:34:32;47.50;;;18.87;;
6436;SDS011;3251;53.550;9.918;2024-01-11T17:36:58;63.23;;;17.80;;
6436;SDS011;3251;53.550;9.918;2024-01-11T17:39:25;59.00;;;15.43;;
6436;SDS011;3251;53.550;9.918;2024-01-11T17:41:53;39.47;;;16.87;;
6436;SDS011;3251;53.550;9.918;2024-01-11T17:44:19;51.40;;;15.97;;
6436;SDS011;3251;53.550;9.918;2024-01-11T17:46:47;45.70;;;15.03;;
6436;SDS011;3251;53.550;9.918;2024-01-11T17:49:13;43.77;;;15.80;;
6436;SDS011;3251;53.550;9.918;2024-01-11T17:51:39;46.57;;;14.97;;
6436;SDS011;3251;53.550;9.918;2024-01-11T17:54:05;45.53;;;16.23;;
6436;SDS011;3251;53.550;9.918;2024-01-11T17:56:32;41.40;;;13.80;;
6436;SDS011;3251;53.550;9.918;2024-01-11T17:59:01;47.90;;;17.43;;
6436;SDS011;3251;53.550;9.918;2024-01-11T18:01:30;53.57;;;19.37;;
6436;SDS011;3251;53.550;9.918;2024-01-11T18:03:56;107.57;;;35.10;;
6436;SDS011;3251;53.550;9.918;2024-01-11T18:06:22;105.77;;;36.70;;
6436;SDS011;3251;53.550;9.918;2024-01-11T18:08:48;69.83;;;21.20;;
6436;SDS011;3251;53.550;9.918;2024-01-11T18:11:14;56.20;;;20.67;;
6436;SDS011;3251;53.550;9.918;2024-01-11T18:13:40;64.20;;;17.90;;
6436;SDS011;3251;53.550;9.918;2024-01-11T18:16:07;50.67;;;15.57;;
6436;SDS011;3251;53.550;9.918;2024-01-11T18:18:33;41.67;;;14.10;;
6436;SDS011;3251;53.550;9.918;2024-01-11T18:21:00;48.60;;;15.80;;
6436;SDS011;3251;53.550;9.918;2024-01-11T18:23:27;43.63;;;14.77;;
6436;SDS011;3251;53.550;9.918;2024-01-11T18:25:53;31.87;;;11.83;;
6436;SDS011;3251;53.550;9.918;2024-01-11T18:28:19;34.63;;;12.67;;
6436;SDS011;3251;53.550;9.918;2024-01-11T18:30:46;43.13;;;13.77;;
6436;SDS011;3251;53.550;9.918;2024-01-11T18:33:12;47.30;;;15.43;;
6436;SDS011;3251;53.550;9.918;2024-01-11T18:35:39;41.20;;;13.83;;
6436;SDS011;3251;53.550;9.918;2024-01-11T18:38:05;42.13;;;11.03;;
6436;SDS011;3251;53.550;9.918;2024-01-11T18:40:31;35.63;;;12.50;;
6436;SDS011;3251;53.550;9.918;2024-01-11T18:42:57;38.70;;;12.20;;
6436;SDS011;3251;53.550;9.918;2024-01-11T18:45:24;49.50;;;13.50;;
6436;SDS011;3251;53.550;9.918;2024-01-11T18:47:50;39.97;;;12.00;;
6436;SDS011;3251;53.550;9.918;2024-01-11T18:50:17;39.10;;;13.47;;
6436;SDS011;3251;53.550;9.918;2024-01-11T18:52:44;49.50;;;14.07;;
6436;SDS011;3251;53.550;9.918;2024-01-11T18:55:11;43.17;;;12.27;;
6436;SDS011;3251;53.550;9.918;2024-01-11T18:57:37;35.50;;;12.90;;
6436;SDS011;3251;53.550;9.918;2024-01-11T19:00:04;41.97;;;12.70;;
6436;SDS011;3251;53.550;9.918;2024-01-11T19:02:31;39.50;;;11.60;;
6436;SDS011;3251;53.550;9.918;2024-01-11T19:04:57;40.37;;;11.53;;
6436;SDS011;3251;53.550;9.918;2024-01-11T19:07:23;49.07;;;13.27;;
6436;SDS011;3251;53.550;9.918;2024-01-11T19:09:50;27.77;;;11.17;;
6436;SDS011;3251;53.550;9.918;2024-01-11T19:12:16;30.13;;;11.83;;
6436;SDS011;3251;53.550;9.918;2024-01-11T19:14:42;48.47;;;18.00;;
6436;SDS011;3251;53.550;9.918;2024-01-11T19:17:08;69.20;;;24.17;;
6436;SDS011;3251;53.550;9.918;2024-01-11T19:19:34;62.43;;;22.00;;
6436;SDS011;3251;53.550;9.918;2024-01-11T19:22:00;51.37;;;18.93;;
6436;SDS011;3251;53.550;9.918;2024-01-11T19:24:26;58.63;;;20.70;;
6436;SDS011;3251;53.550;9.918;2024-01-11T19:26:53;45.83;;;17.47;;
6436;SDS011;3251;53.550;9.918;2024-01-11T19:29:19;31.13;;;10.90;;
6436;SDS011;3251;53.550;9.918;2024-01-11T19:31:45;41.53;;;12.60;;
6436;SDS011;3251;53.550;9.918;2024-01-11T19:34:11;37.00;;;13.10;;
6436;SDS011;3251;53.550;9.918;2024-01-11T19:36:38;41.27;;;13.10;;
6436;SDS011;3251;53.550;9.918;2024-01-11T19:39:04;60.17;;;16.50;;
6436;SDS011;3251;53.550;9.918;2024-01-11T19:41:30;49.07;;;15.03;;
6436;SDS011;3251;53.550;9.918;2024-01-11T19:43:57;46.00;;;15.60;;
6436;SDS011;3251;53.550;9.918;2024-01-11T19:46:23;35.10;;;13.87;;
6436;SDS011;3251;53.550;9.918;2024-01-11T19:48:49;44.50;;;12.57;;
6436;SDS011;3251;53.550;9.918;2024-01-11T19:51:15;39.10;;;13.33;;
6436;SDS011;3251;53.550;9.918;2024-01-11T19:53:42;47.97;;;13.50;;
6436;SDS011;3251;53.550;9.918;2024-01-11T19:56:18;34.70;;;12.97;;
6436;SDS011;3251;53.550;9.918;2024-01-11T19:58:44;38.07;;;13.23;;
6436;SDS011;3251;53.550;9.918;2024-01-11T20:01:11;35.60;;;14.23;;
6436;SDS011;3251;53.550;9.918;2024-01-11T20:03:38;31.73;;;12.70;;
6436;SDS011;3251;53.550;9.918;2024-01-11T20:06:05;39.73;;;13.67;;
6436;SDS011;3251;53.550;9.918;2024-01-11T20:08:32;37.07;;;16.30;;
6436;SDS011;3251;53.550;9.918;2024-01-11T20:10:58;45.03;;;14.67;;
6436;SDS011;3251;53.550;9.918;2024-01-11T20:13:24;58.87;;;16.00;;
6436;SDS011;3251;53.550;9.918;2024-01-11T20:15:50;42.10;;;16.33;;
6436;SDS011;3251;53.550;9.918;2024-01-11T20:18:16;40.80;;;14.63;;
6436;SDS011;3251;53.550;9.918;2024-01-11T20:20:42;72.30;;;30.83;;
6436;SDS011;3251;53.550;9.918;2024-01-11T20:23:10;140.80;;;50.53;;
6436;SDS011;3251;53.550;9.918;2024-01-11T20:25:36;83.30;;;29.63;;
6436;SDS011;3251;53.550;9.918;2024-01-11T20:28:02;60.27;;;23.07;;
6436;SDS011;3251;53.550;9.918;2024-01-11T20:30:28;47.37;;;18.60;;
6436;SDS011;3251;53.550;9.918;2024-01-11T20:32:54;41.87;;;17.37;;
6436;SDS011;3251;53.550;9.918;2024-01-11T20:35:21;39.67;;;16.70;;
6436;SDS011;3251;53.550;9.918;2024-01-11T20:37:47;44.13;;;15.97;;
6436;SDS011;3251;53.550;9.918;2024-01-11T20:40:13;37.17;;;15.80;;
6436;SDS011;3251;53.550;9.918;2024-01-11T20:42:39;35.60;;;15.83;;
6436;SDS011;3251;53.550;9.918;2024-01-11T20:45:06;33.97;;;14.17;;
6436;SDS011;3251;53.550;9.918;2024-01-11T20:47:32;32.63;;;13.43;;
6436;SDS011;3251;53.550;9.918;2024-01-11T20:49:58;34.33;;;12.80;;
6436;SDS011;3251;53.550;9.918;2024-01-11T20:52:24;29.03;;;13.80;;
6436;SDS011;3251;53.550;9.918;2024-01-11T20:54:51;34.33;;;14.90;;
6436;SDS011;3251;53.550;9.918;2024-01-11T20:57:17;28.60;;;14.00;;
6436;SDS011;3251;53.550;9.918;2024-01-11T20:59:43;34.17;;;14.40;;
6436;SDS011;3251;53.550;9.918;2024-01-11T21:02:09;31.47;;;13.77;;
6436;SDS011;3251;53.550;9.918;2024-01-11T21:04:35;44.67;;;14.50;;
6436;SDS011;3251;53.550;9.918;2024-01-11T21:07:02;25.60;;;14.27;;
6436;SDS011;3251;53.550;9.918;2024-01-11T21:09:28;27.33;;;13.73;;
6436;SDS011;3251;53.550;9.918;2024-01-11T21:11:54;24.40;;;14.27;;
6436;SDS011;3251;53.550;9.918;2024-01-11T21:14:21;24.67;;;14.13;;
6436;SDS011;3251;53.550;9.918;2024-01-11T21:16:47;25.27;;;14.17;;
6436;SDS011;3251;53.550;9.918;2024-01-11T21:19:13;33.10;;;16.27;;
6436;SDS011;3251;53.550;9.918;2024-01-11T21:21:39;26.90;;;14.70;;
6436;SDS011;3251;53.550;9.918;2024-01-11T21:24:06;28.30;;;12.90;;
6436;SDS011;3251;53.550;9.918;2024-01-11T21:26:32;28.50;;;14.27;;
6436;SDS011;3251;53.550;9.918;2024-01-11T21:28:58;24.40;;;14.17;;